Terminal Aerodrome Forecast
Issued by NWS Austin/San Antonio, TX

Home | Current Version | Previous Version | Text Only | Print | Product List | Glossary On
Versions: 1 2 3 4 5 6 7 8 9 10 11 12 13 14 15 16 17 18 19 20 21 22 23 24 25 26 27 28 29 30 31 32 33
433
FTUS44 KEWX 271934 AAB
TAFAUS
TAF AMD
KAUS 271934Z 2720/2824 04012KT P6SM OVC012
     FM272100 07011KT P6SM OVC025
     FM272300 12010KT P6SM VCTS SCT025CB BKN040
     FM280100 15008KT P6SM SCT040 OVC250
     FM280500 16007KT P6SM BKN015
      TEMPO 2812/2815 2SM BR OVC003
     FM281700 17008KT P6SM BKN040=

USA.gov is the U.S. government's official web portal to all federal, state and local government web resources and services.